KSGJ

Northeast Florida Regional Airport

St Augustine, Florida, USA
METAR KSGJ 170956Z AUTO 00000KT 10SM CLR 04/04 A3025 RMK AO2 SLP241 T00440039
Observed Flight Rules
Jan-17 @ 09:56 UTC (41 minutes ago) Visual Flight Rules
Wind Visibility Clouds
Calm 10 miles
  • Clear skies
Temperatures Readings
Current 4°C / 39°F
Dewpoint 4°C / 39°F
Humidity 100%
Altimeter 30.25" Hg
Pressure 1024.1 hPa
Elevation 3
METAR KSGJ 170956Z AUTO 00000KT 10SM CLR 04/04 A3025 RMK AO2 SLP241 T00440039
Observed Flight Rules
Jan-17 @ 09:56 UTC
(41 minutes ago)
VFR
Wind Visibility
Calm 10 miles
Clouds
  • Clear skies
Temperature Dewpoint
4°C / 39°F 4°C / 39°F
Humidity Altimeter Pressure
100% 30.25" Hg 1024.1 hPa